createdAt,value
2019-01-30T00:00:41.501Z,3.92
2019-01-30T00:01:41.417Z,3.91
2019-01-30T00:02:41.192Z,3.91
2019-01-30T00:03:41.189Z,3.91
2019-01-30T00:04:41.368Z,3.91
2019-01-30T00:05:41.266Z,3.88
2019-01-30T00:06:41.419Z,3.9
2019-01-30T00:07:41.231Z,3.89
2019-01-30T00:08:41.249Z,3.89
2019-01-30T00:09:41.258Z,3.88
2019-01-30T00:10:41.332Z,3.87
2019-01-30T00:11:41.346Z,3.88
2019-01-30T00:12:41.520Z,3.88
2019-01-30T00:13:41.683Z,3.87
2019-01-30T00:14:41.330Z,3.87
2019-01-30T00:15:41.208Z,3.89
2019-01-30T00:16:41.365Z,3.89
2019-01-30T00:17:41.555Z,3.88
2019-01-30T00:18:41.158Z,3.87
2019-01-30T00:19:41.154Z,3.87
2019-01-30T00:20:41.643Z,3.89
2019-01-30T00:21:41.129Z,3.88
2019-01-30T00:22:41.384Z,3.89
2019-01-30T00:23:41.240Z,3.89
2019-01-30T00:24:41.245Z,3.87
2019-01-30T00:25:41.290Z,3.88
2019-01-30T00:26:41.146Z,3.86
2019-01-30T00:27:41.189Z,3.87
2019-01-30T00:28:41.212Z,3.88
2019-01-30T00:29:41.137Z,3.88
2019-01-30T00:30:41.226Z,3.89
2019-01-30T00:31:41.216Z,3.87
2019-01-30T00:32:41.235Z,3.89
2019-01-30T00:33:41.553Z,3.87
2019-01-30T00:34:41.298Z,3.86
2019-01-30T00:35:41.276Z,3.85
2019-01-30T00:36:41.272Z,3.84
2019-01-30T00:37:41.330Z,3.85
2019-01-30T00:38:42.962Z,3.86
2019-01-30T00:39:41.642Z,3.85
2019-01-30T00:40:41.704Z,3.85
2019-01-30T00:41:41.215Z,3.88
2019-01-30T00:42:41.264Z,3.86
2019-01-30T00:43:41.377Z,3.87
2019-01-30T00:44:41.672Z,3.88
2019-01-30T00:45:41.502Z,3.84
2019-01-30T00:46:41.128Z,3.84
2019-01-30T00:47:41.443Z,3.85
2019-01-30T00:48:41.520Z,3.86
2019-01-30T00:49:41.417Z,3.85
2019-01-30T00:50:42.949Z,3.85
2019-01-30T00:51:42.112Z,3.84
2019-01-30T00:52:41.770Z,3.84
2019-01-30T00:53:41.239Z,3.83
2019-01-30T00:54:42.936Z,3.85
2019-01-30T00:55:41.395Z,3.84
2019-01-30T00:56:41.672Z,3.83
2019-01-30T00:57:41.361Z,3.84
2019-01-30T00:58:41.145Z,3.85
2019-01-30T00:59:41.605Z,3.83
2019-01-30T01:00:41.839Z,3.84
2019-01-30T01:01:41.233Z,3.82
2019-01-30T01:02:41.094Z,3.84
2019-01-30T01:03:41.080Z,3.84
2019-01-30T01:04:41.650Z,3.83
2019-01-30T01:05:41.145Z,3.81
2019-01-30T01:06:41.328Z,3.82
2019-01-30T01:07:41.459Z,3.81
2019-01-30T01:08:41.347Z,3.8
2019-01-30T01:09:41.125Z,3.81
2019-01-30T01:10:41.371Z,3.81
2019-01-30T01:11:41.373Z,3.8
2019-01-30T01:12:41.166Z,3.81
2019-01-30T01:13:41.092Z,3.79
2019-01-30T01:14:41.404Z,3.79
2019-01-30T01:15:41.194Z,3.79
2019-01-30T01:16:41.531Z,3.79
2019-01-30T01:17:41.113Z,3.8
2019-01-30T01:18:41.330Z,3.8
2019-01-30T01:19:41.141Z,3.8
2019-01-30T01:20:41.575Z,3.79
2019-01-30T01:21:41.863Z,3.8
2019-01-30T01:22:41.109Z,3.79
2019-01-30T01:23:41.181Z,3.8
2019-01-30T01:24:41.570Z,3.82
2019-01-30T01:25:41.366Z,3.8
2019-01-30T01:26:41.262Z,3.78
2019-01-30T01:27:41.084Z,3.78
2019-01-30T01:28:41.370Z,3.79
2019-01-30T01:29:41.611Z,3.8
2019-01-30T01:30:41.163Z,3.81
2019-01-30T01:31:41.148Z,3.81
2019-01-30T01:32:41.351Z,3.81
2019-01-30T01:33:41.333Z,3.8
2019-01-30T01:34:41.226Z,3.81
2019-01-30T01:35:41.066Z,3.79
2019-01-30T01:36:41.218Z,3.8
2019-01-30T01:37:41.080Z,3.83
2019-01-30T01:38:41.129Z,3.79
2019-01-30T01:39:41.072Z,3.8
2019-01-30T01:40:41.379Z,3.8
2019-01-30T01:41:41.371Z,3.8
2019-01-30T01:42:41.158Z,3.78
2019-01-30T01:43:41.281Z,3.79
2019-01-30T01:44:41.284Z,3.78
2019-01-30T01:45:41.100Z,3.8
2019-01-30T01:46:41.303Z,3.79
2019-01-30T01:47:41.517Z,3.8
2019-01-30T01:48:41.316Z,3.79
2019-01-30T01:49:41.054Z,3.78
2019-01-30T01:50:41.184Z,3.78
2019-01-30T01:51:41.661Z,3.78
2019-01-30T01:52:41.272Z,3.79
2019-01-30T01:53:41.074Z,3.79
2019-01-30T01:54:41.396Z,3.8
2019-01-30T01:55:41.003Z,3.77
2019-01-30T01:56:41.116Z,3.78
2019-01-30T01:57:41.046Z,3.77
2019-01-30T01:58:41.937Z,3.76
2019-01-30T01:59:41.109Z,3.78
2019-01-30T02:00:41.129Z,3.78
2019-01-30T02:01:41.217Z,3.77
2019-01-30T02:02:41.171Z,3.78
2019-01-30T02:03:41.153Z,3.8
2019-01-30T02:04:41.525Z,3.78
2019-01-30T02:05:41.163Z,3.77
2019-01-30T02:06:41.242Z,3.78
2019-01-30T02:07:41.093Z,3.77
2019-01-30T02:08:41.253Z,3.78
2019-01-30T02:09:41.175Z,3.78
2019-01-30T02:10:41.043Z,3.76
2019-01-30T02:11:41.705Z,3.76
2019-01-30T02:12:41.102Z,3.77
2019-01-30T02:13:41.076Z,3.76
2019-01-30T02:14:41.076Z,3.77
2019-01-30T02:15:41.547Z,3.76
2019-01-30T02:16:41.052Z,3.77
2019-01-30T02:17:41.110Z,3.78
2019-01-30T02:18:40.968Z,3.77
2019-01-30T02:19:41.099Z,3.75
2019-01-30T02:20:41.224Z,3.74
2019-01-30T02:21:41.136Z,3.75
2019-01-30T02:22:41.263Z,3.77
2019-01-30T02:23:41.081Z,3.75
2019-01-30T02:24:41.140Z,3.77
2019-01-30T02:25:41.053Z,3.76
2019-01-30T02:26:41.379Z,3.75
2019-01-30T02:27:40.967Z,3.77
2019-01-30T02:28:41.507Z,3.75
2019-01-30T02:29:40.944Z,3.74
2019-01-30T02:30:48.026Z,3.74
2019-01-30T02:31:41.874Z,3.75
2019-01-30T02:32:41.246Z,3.76
2019-01-30T02:33:41.540Z,3.75
2019-01-30T02:34:41.828Z,3.75
2019-01-30T02:35:40.980Z,3.75
2019-01-30T02:36:41.149Z,3.74
2019-01-30T02:37:41.129Z,3.74
2019-01-30T02:38:41.265Z,3.74
2019-01-30T02:39:42.743Z,3.73
2019-01-30T02:40:41.305Z,3.74
2019-01-30T02:41:40.953Z,3.75
2019-01-30T02:42:41.404Z,3.77
2019-01-30T02:43:41.038Z,3.77
2019-01-30T02:44:41.130Z,3.74
2019-01-30T02:45:41.254Z,3.73
2019-01-30T02:46:41.088Z,3.73
2019-01-30T02:47:40.996Z,3.74
2019-01-30T02:48:41.222Z,3.73
2019-01-30T02:49:41.501Z,3.73
2019-01-30T02:50:41.124Z,3.74
2019-01-30T02:51:40.953Z,3.73
2019-01-30T02:52:41.079Z,3.74
2019-01-30T02:53:41.035Z,3.74
2019-01-30T02:54:40.954Z,3.75
2019-01-30T02:55:42.725Z,3.76
2019-01-30T02:56:41.289Z,3.75
2019-01-30T02:57:41.226Z,3.74
2019-01-30T02:58:40.990Z,3.75
2019-01-30T02:59:41.309Z,3.74
2019-01-30T03:00:41.250Z,3.75
2019-01-30T03:01:40.918Z,3.75
2019-01-30T03:02:41.332Z,3.74
2019-01-30T03:03:41.119Z,3.75
2019-01-30T03:04:41.243Z,3.74
2019-01-30T03:05:41.051Z,3.74
2019-01-30T03:06:40.899Z,3.75
2019-01-30T03:07:41.175Z,3.75
2019-01-30T03:08:41.392Z,3.72
2019-01-30T03:09:41.622Z,3.71
2019-01-30T03:10:41.194Z,3.73
2019-01-30T03:11:41.196Z,3.74
2019-01-30T03:12:41.409Z,3.75
2019-01-30T03:13:41.099Z,3.75
2019-01-30T03:14:40.994Z,3.74
2019-01-30T03:15:40.919Z,3.73
2019-01-30T03:16:41.026Z,3.74
2019-01-30T03:17:41.426Z,3.75
2019-01-30T03:18:41.048Z,3.74
2019-01-30T03:19:40.891Z,3.73
2019-01-30T03:20:40.891Z,3.74
2019-01-30T03:21:41.384Z,3.72
2019-01-30T03:22:41.428Z,3.72
2019-01-30T03:23:41.294Z,3.72
2019-01-30T03:24:41.284Z,3.72
2019-01-30T03:25:41.512Z,3.72
2019-01-30T03:26:41.181Z,3.72
2019-01-30T03:27:41.732Z,3.72
2019-01-30T03:28:41.316Z,3.73
2019-01-30T03:29:41.140Z,3.71
2019-01-30T03:30:40.854Z,3.72
2019-01-30T03:31:40.979Z,3.72
2019-01-30T03:32:40.935Z,3.71
2019-01-30T03:33:40.912Z,3.74
2019-01-30T03:34:41.235Z,3.72
2019-01-30T03:35:40.930Z,3.72
2019-01-30T03:36:41.158Z,3.72
2019-01-30T03:37:41.119Z,3.73
2019-01-30T03:38:41.054Z,3.74
2019-01-30T03:39:40.905Z,3.73
2019-01-30T03:40:41.310Z,3.74
2019-01-30T03:41:40.917Z,3.75
2019-01-30T03:42:41.005Z,3.73
2019-01-30T03:43:40.933Z,3.74
2019-01-30T03:44:41.118Z,3.74
2019-01-30T03:45:40.898Z,3.75
2019-01-30T03:46:40.930Z,3.73
2019-01-30T03:47:40.853Z,3.72
2019-01-30T03:48:40.817Z,3.75
2019-01-30T03:49:41.142Z,3.75
2019-01-30T03:50:40.998Z,3.74
2019-01-30T03:51:40.837Z,3.73
2019-01-30T03:52:40.814Z,3.72
2019-01-30T03:53:40.894Z,3.73
2019-01-30T03:54:40.863Z,3.73
2019-01-30T03:55:40.931Z,3.71
2019-01-30T03:56:41.032Z,3.7
2019-01-30T03:57:41.006Z,3.73
2019-01-30T03:58:41.317Z,3.72
2019-01-30T03:59:41.218Z,3.72
2019-01-30T04:00:41.108Z,3.73
2019-01-30T04:01:40.882Z,3.72
2019-01-30T04:02:40.970Z,3.74
2019-01-30T04:03:41.161Z,3.75
2019-01-30T04:04:41.411Z,3.75
2019-01-30T04:05:41.161Z,3.74
2019-01-30T04:06:41.147Z,3.73
2019-01-30T04:07:40.916Z,3.74
2019-01-30T04:08:40.810Z,3.74
2019-01-30T04:09:41.211Z,3.74
2019-01-30T04:10:41.086Z,3.75
2019-01-30T04:11:41.194Z,3.76
2019-01-30T04:12:40.808Z,3.76
2019-01-30T04:13:40.784Z,3.76
2019-01-30T04:14:40.828Z,3.74
2019-01-30T04:15:41.126Z,3.76
2019-01-30T04:16:41.531Z,3.77
2019-01-30T04:17:41.196Z,3.76
2019-01-30T04:18:40.916Z,3.76
2019-01-30T04:19:41.353Z,3.77
2019-01-30T04:20:40.884Z,3.77
2019-01-30T04:21:40.867Z,3.78
2019-01-30T04:22:41.060Z,3.79
2019-01-30T04:23:40.825Z,3.81
2019-01-30T04:24:41.076Z,3.81
2019-01-30T04:25:41.406Z,3.8
2019-01-30T04:26:40.923Z,3.81
2019-01-30T04:27:40.882Z,3.82
2019-01-30T04:28:41.192Z,3.82
2019-01-30T04:29:40.985Z,3.84
2019-01-30T04:30:40.903Z,3.82
2019-01-30T04:31:40.918Z,3.81
2019-01-30T04:32:41.146Z,3.81
2019-01-30T04:33:40.882Z,3.82
2019-01-30T04:34:41.318Z,3.8
2019-01-30T04:35:40.733Z,3.81
2019-01-30T04:36:40.922Z,3.81
2019-01-30T04:37:40.906Z,3.8
2019-01-30T04:38:40.746Z,3.82
2019-01-30T04:39:40.811Z,3.8
2019-01-30T04:40:41.008Z,3.8
2019-01-30T04:41:40.823Z,3.8
2019-01-30T04:42:41.193Z,3.79
2019-01-30T04:43:40.909Z,3.78
2019-01-30T04:44:40.777Z,3.8
2019-01-30T04:45:40.968Z,3.8
2019-01-30T04:46:41.116Z,3.78
2019-01-30T04:47:40.966Z,3.79
2019-01-30T04:48:40.769Z,3.79
2019-01-30T04:49:40.755Z,3.8
2019-01-30T04:50:40.996Z,3.78
2019-01-30T04:51:41.178Z,3.77
2019-01-30T04:52:40.737Z,3.79
2019-01-30T04:53:40.957Z,3.78
2019-01-30T04:54:41.178Z,3.8
2019-01-30T04:55:40.693Z,3.8
2019-01-30T04:56:40.709Z,3.8
2019-01-30T04:57:41.021Z,3.79
2019-01-30T04:58:40.941Z,3.78
2019-01-30T04:59:40.886Z,3.76
2019-01-30T05:00:41.759Z,3.78
2019-01-30T05:01:50.276Z,3.79
2019-01-30T05:02:41.109Z,3.79
2019-01-30T05:03:40.776Z,3.81
2019-01-30T05:04:40.892Z,3.8
2019-01-30T05:05:40.969Z,3.8
2019-01-30T05:06:40.785Z,3.8
2019-01-30T05:07:40.898Z,3.83
2019-01-30T05:08:40.841Z,3.81
2019-01-30T05:09:40.829Z,3.83
2019-01-30T05:10:40.869Z,3.82
2019-01-30T05:11:41.205Z,3.82
2019-01-30T05:12:40.738Z,3.84
2019-01-30T05:13:40.733Z,3.85
2019-01-30T05:14:40.689Z,3.85
2019-01-30T05:15:40.824Z,3.85
2019-01-30T05:16:40.774Z,3.84
2019-01-30T05:17:40.726Z,3.84
2019-01-30T05:18:40.883Z,3.85
2019-01-30T05:19:41.024Z,3.84
2019-01-30T05:20:40.713Z,3.84
2019-01-30T05:21:41.007Z,3.85
2019-01-30T05:22:41.219Z,3.84
2019-01-30T05:23:40.708Z,3.85
2019-01-30T05:24:40.761Z,3.84
2019-01-30T05:25:41.013Z,3.87
2019-01-30T05:26:40.902Z,3.86
2019-01-30T05:27:41.167Z,3.87
2019-01-30T05:28:40.761Z,3.87
2019-01-30T05:29:40.792Z,3.87
2019-01-30T05:30:41.548Z,3.87
2019-01-30T05:31:40.760Z,3.89
2019-01-30T05:32:40.638Z,3.9
2019-01-30T05:33:41.364Z,3.91
2019-01-30T05:34:40.720Z,3.92
2019-01-30T05:35:40.710Z,3.92
2019-01-30T05:36:40.737Z,3.93
2019-01-30T05:37:41.014Z,3.93
2019-01-30T05:38:40.869Z,3.95
2019-01-30T05:39:40.839Z,3.95
2019-01-30T05:40:41.303Z,3.94
2019-01-30T05:41:41.853Z,3.94
2019-01-30T05:42:41.809Z,3.95
2019-01-30T05:43:45.962Z,3.93
2019-01-30T05:44:44.075Z,3.93
2019-01-30T05:45:42.333Z,3.92
2019-01-30T05:46:43.996Z,3.91
2019-01-30T05:47:46.028Z,3.91
2019-01-30T05:48:40.901Z,3.92
2019-01-30T05:49:42.694Z,3.92
2019-01-30T05:50:40.707Z,3.92
2019-01-30T05:51:40.805Z,3.9
2019-01-30T05:52:40.675Z,3.9
2019-01-30T05:53:41.294Z,3.91
2019-01-30T05:54:41.176Z,3.91
2019-01-30T05:55:40.760Z,3.91
2019-01-30T05:56:40.782Z,3.9
2019-01-30T05:57:40.694Z,3.89
2019-01-30T05:58:40.811Z,3.89
2019-01-30T05:59:40.753Z,3.89
2019-01-30T06:00:41.068Z,3.9
2019-01-30T06:01:40.817Z,3.89
2019-01-30T06:02:40.688Z,3.89
2019-01-30T06:03:40.752Z,3.9
2019-01-30T06:04:40.644Z,3.91
2019-01-30T06:05:41.176Z,3.91
2019-01-30T06:06:40.969Z,3.9
2019-01-30T06:07:40.700Z,3.92
2019-01-30T06:08:40.949Z,3.92
2019-01-30T06:09:40.766Z,3.9
2019-01-30T06:10:40.899Z,3.91
2019-01-30T06:11:40.660Z,3.9
2019-01-30T06:12:41.737Z,3.89
2019-01-30T06:13:40.891Z,3.9
2019-01-30T06:14:40.767Z,3.89
2019-01-30T06:15:40.568Z,3.92
2019-01-30T06:16:40.600Z,3.92
2019-01-30T06:17:42.444Z,3.92
2019-01-30T06:18:40.844Z,3.9
2019-01-30T06:19:40.575Z,3.89
2019-01-30T06:20:40.730Z,3.9
2019-01-30T06:21:40.646Z,3.92
2019-01-30T06:22:41.290Z,3.91
2019-01-30T06:23:40.681Z,3.9
2019-01-30T06:24:41.093Z,3.91
2019-01-30T06:25:40.638Z,3.91
2019-01-30T06:26:40.645Z,3.91
2019-01-30T06:27:40.998Z,3.91
2019-01-30T06:28:41.290Z,3.92
2019-01-30T06:29:41.226Z,3.91
2019-01-30T06:30:40.576Z,3.9
2019-01-30T06:31:40.793Z,3.9
2019-01-30T06:32:40.828Z,3.9
2019-01-30T06:33:40.707Z,3.87
2019-01-30T06:34:40.647Z,3.89
2019-01-30T06:35:40.866Z,3.89
2019-01-30T06:36:40.639Z,3.89
2019-01-30T06:37:41.209Z,3.88
2019-01-30T06:38:40.993Z,3.88
2019-01-30T06:39:40.889Z,3.88
2019-01-30T06:40:41.054Z,3.89
2019-01-30T06:41:42.412Z,3.9
2019-01-30T06:42:40.801Z,3.89
2019-01-30T06:43:40.903Z,3.88
2019-01-30T06:44:40.653Z,3.9
2019-01-30T06:45:42.408Z,3.89
2019-01-30T06:46:41.258Z,3.89
2019-01-30T06:47:40.823Z,3.89
2019-01-30T06:48:40.648Z,3.89
2019-01-30T06:49:40.603Z,3.89
2019-01-30T06:50:44.041Z,3.88
2019-01-30T06:51:40.568Z,3.89
2019-01-30T06:52:40.643Z,3.87
2019-01-30T06:53:40.563Z,3.88
2019-01-30T06:54:41.398Z,3.88
2019-01-30T06:55:40.624Z,3.87
2019-01-30T06:56:40.550Z,3.86
2019-01-30T06:57:40.732Z,3.86
2019-01-30T06:58:40.823Z,3.88
2019-01-30T06:59:40.530Z,3.88
2019-01-30T07:00:40.544Z,3.88
2019-01-30T07:01:40.672Z,3.86
2019-01-30T07:02:41.157Z,3.88
2019-01-30T07:03:40.781Z,3.89
2019-01-30T07:04:40.592Z,3.89
2019-01-30T07:05:40.563Z,3.87
2019-01-30T07:06:40.865Z,3.89
2019-01-30T07:07:40.545Z,3.87
2019-01-30T07:08:40.919Z,3.86
2019-01-30T07:09:40.575Z,3.9
2019-01-30T07:10:40.553Z,3.9
2019-01-30T07:11:40.609Z,3.88
2019-01-30T07:12:40.619Z,3.88
2019-01-30T07:13:40.702Z,3.87
2019-01-30T07:14:40.580Z,3.89
2019-01-30T07:15:40.815Z,3.87
2019-01-30T07:16:40.495Z,3.87
2019-01-30T07:17:41.341Z,3.88
2019-01-30T07:18:40.553Z,3.88
2019-01-30T07:19:40.539Z,3.87
2019-01-30T07:20:40.550Z,3.87
2019-01-30T07:21:40.873Z,3.87
2019-01-30T07:22:40.656Z,3.85
2019-01-30T07:23:40.513Z,3.87
2019-01-30T07:24:41.098Z,3.85
2019-01-30T07:25:41.022Z,3.87
2019-01-30T07:26:40.629Z,3.88
2019-01-30T07:27:40.713Z,3.88
2019-01-30T07:28:40.515Z,3.89
2019-01-30T07:29:40.602Z,3.86
2019-01-30T07:30:40.558Z,3.87
2019-01-30T07:31:40.819Z,3.89
2019-01-30T07:32:42.745Z,3.87
2019-01-30T07:33:40.558Z,3.87
2019-01-30T07:34:40.486Z,3.88
2019-01-30T07:35:40.610Z,3.87
2019-01-30T07:36:40.644Z,3.87
2019-01-30T07:37:42.636Z,3.87
2019-01-30T07:38:41.568Z,3.9
2019-01-30T07:39:40.456Z,3.89
2019-01-30T07:40:42.327Z,3.89
2019-01-30T07:41:40.514Z,3.88
2019-01-30T07:42:40.808Z,3.89
2019-01-30T07:43:40.847Z,3.87
2019-01-30T07:44:51.368Z,3.87
2019-01-30T07:45:40.515Z,3.86
2019-01-30T07:46:40.828Z,3.85
2019-01-30T07:47:40.568Z,3.87
2019-01-30T07:48:40.550Z,3.88
2019-01-30T07:49:40.491Z,3.88
2019-01-30T07:50:40.879Z,3.85
2019-01-30T07:51:40.872Z,3.84
2019-01-30T07:52:40.578Z,3.88
2019-01-30T07:53:40.782Z,3.86
2019-01-30T07:54:40.616Z,3.87
2019-01-30T07:55:40.688Z,3.89
2019-01-30T07:56:40.545Z,3.88
2019-01-30T07:57:40.703Z,3.88
2019-01-30T07:58:40.485Z,3.87
2019-01-30T07:59:40.547Z,3.86
2019-01-30T08:00:40.430Z,3.86
2019-01-30T08:01:42.290Z,3.86
2019-01-30T08:02:53.967Z,3.89
2019-01-30T08:03:40.877Z,3.89
2019-01-30T08:04:40.861Z,3.89
2019-01-30T08:05:40.494Z,3.86
2019-01-30T08:06:41.693Z,3.86
2019-01-30T08:07:40.897Z,3.85
2019-01-30T08:08:40.912Z,3.85
2019-01-30T08:09:41.331Z,3.83
2019-01-30T08:10:40.495Z,3.83
2019-01-30T08:11:40.580Z,3.84
2019-01-30T08:12:40.827Z,3.84
2019-01-30T08:13:40.816Z,3.87
2019-01-30T08:14:40.820Z,3.86
2019-01-30T08:15:40.479Z,3.87
2019-01-30T08:16:40.625Z,3.86
2019-01-30T08:17:40.564Z,3.86
2019-01-30T08:18:40.962Z,3.87
2019-01-30T08:19:40.421Z,3.86
2019-01-30T08:20:40.552Z,3.86
2019-01-30T08:21:40.562Z,3.87
2019-01-30T08:22:42.413Z,3.86
2019-01-30T08:23:41.580Z,3.86
2019-01-30T08:24:41.792Z,3.86
2019-01-30T08:25:40.874Z,3.87
2019-01-30T08:26:41.463Z,3.89
2019-01-30T08:27:42.036Z,3.9
2019-01-30T08:28:41.611Z,3.9
2019-01-30T08:29:41.675Z,3.89
2019-01-30T08:30:40.992Z,3.87
2019-01-30T08:31:41.174Z,3.88
2019-01-30T08:32:42.012Z,3.89
2019-01-30T08:33:40.539Z,3.91
2019-01-30T08:34:40.412Z,3.9
2019-01-30T08:35:40.417Z,3.9
2019-01-30T08:36:40.522Z,3.91
2019-01-30T08:37:40.639Z,3.9
2019-01-30T08:38:40.538Z,3.9
2019-01-30T08:39:40.466Z,3.91
2019-01-30T08:40:40.430Z,3.91
2019-01-30T08:41:40.527Z,3.89
2019-01-30T08:42:40.495Z,3.9
2019-01-30T08:43:40.553Z,3.91
2019-01-30T08:44:47.535Z,3.89
2019-01-30T08:45:40.613Z,3.9
2019-01-30T08:46:40.378Z,3.9
2019-01-30T08:47:40.358Z,3.9
2019-01-30T08:48:40.612Z,3.9
2019-01-30T08:49:40.570Z,3.88
2019-01-30T08:50:40.462Z,3.89
2019-01-30T08:51:40.529Z,3.89
2019-01-30T08:52:41.883Z,3.9
2019-01-30T08:53:40.775Z,3.9
2019-01-30T08:54:40.365Z,3.92
2019-01-30T08:55:40.719Z,3.93
2019-01-30T08:56:53.516Z,3.92
2019-01-30T08:57:40.738Z,3.92
2019-01-30T08:58:40.355Z,3.91
2019-01-30T08:59:40.354Z,3.92
2019-01-30T09:00:40.387Z,3.93
2019-01-30T09:01:40.568Z,3.93
2019-01-30T09:02:40.621Z,3.93
2019-01-30T09:03:40.441Z,3.94
2019-01-30T09:04:40.454Z,3.93
2019-01-30T09:05:40.563Z,3.93
2019-01-30T09:06:40.462Z,3.93
2019-01-30T09:07:44.960Z,3.93
2019-01-30T09:08:40.450Z,3.94
2019-01-30T09:09:40.585Z,3.95
2019-01-30T09:10:40.433Z,3.93
2019-01-30T09:11:40.804Z,3.94
2019-01-30T09:12:40.607Z,3.96
2019-01-30T09:13:40.518Z,3.95
2019-01-30T09:14:40.520Z,3.94
2019-01-30T09:15:40.440Z,3.96
2019-01-30T09:16:40.372Z,3.95
2019-01-30T09:17:40.339Z,3.96
2019-01-30T09:18:40.658Z,3.96
2019-01-30T09:19:40.400Z,3.96
2019-01-30T09:20:40.357Z,3.96
2019-01-30T09:21:40.985Z,3.98
2019-01-30T09:22:40.332Z,3.98
2019-01-30T09:23:43.209Z,3.99
2019-01-30T09:24:40.331Z,3.97
2019-01-30T09:25:42.114Z,3.97
2019-01-30T09:26:40.709Z,3.98
2019-01-30T09:27:40.536Z,3.98
2019-01-30T09:28:40.327Z,4.01
2019-01-30T09:29:40.339Z,4
2019-01-30T09:30:40.480Z,4
2019-01-30T09:31:40.327Z,3.99
2019-01-30T09:32:40.797Z,3.98
2019-01-30T09:33:40.361Z,4
2019-01-30T09:34:40.614Z,4
2019-01-30T09:35:40.606Z,4.01
2019-01-30T09:36:40.583Z,4.01
2019-01-30T09:37:41.192Z,4.02
2019-01-30T09:38:41.044Z,4.02
2019-01-30T09:39:40.349Z,4.03
2019-01-30T09:40:40.780Z,4.02
2019-01-30T09:41:40.321Z,4.04
2019-01-30T09:42:40.335Z,4.04
2019-01-30T09:43:40.412Z,4.04
2019-01-30T09:44:40.693Z,4.04
2019-01-30T09:45:40.992Z,4.06
2019-01-30T09:46:40.526Z,4.06
2019-01-30T09:47:40.640Z,4.06
2019-01-30T09:48:40.659Z,4.07
2019-01-30T09:49:40.834Z,4.09
2019-01-30T09:50:40.310Z,4.08
2019-01-30T09:51:40.460Z,4.08
2019-01-30T09:52:41.156Z,4.11
2019-01-30T09:53:40.358Z,4.11
2019-01-30T09:54:40.453Z,4.12
2019-01-30T09:55:40.573Z,4.11
2019-01-30T09:56:40.780Z,4.12
2019-01-30T09:57:40.517Z,4.13
2019-01-30T09:58:40.272Z,4.13
2019-01-30T09:59:40.404Z,4.14
2019-01-30T10:00:40.267Z,4.16
2019-01-30T10:01:40.220Z,4.14
2019-01-30T10:02:40.468Z,4.15
2019-01-30T10:03:40.565Z,4.15
2019-01-30T10:04:40.421Z,4.15
2019-01-30T10:05:40.263Z,4.15
2019-01-30T10:06:40.442Z,4.16
2019-01-30T10:07:40.867Z,4.15
2019-01-30T10:08:40.351Z,4.15
2019-01-30T10:09:40.214Z,4.15
2019-01-30T10:10:40.544Z,4.16
2019-01-30T10:11:40.526Z,4.14
2019-01-30T10:12:40.384Z,4.16
2019-01-30T10:13:40.701Z,4.16
2019-01-30T10:14:41.125Z,4.17
2019-01-30T10:15:40.252Z,4.17
2019-01-30T10:16:40.479Z,4.19
2019-01-30T10:17:40.542Z,4.18
2019-01-30T10:18:40.292Z,4.17
2019-01-30T10:19:42.111Z,4.18
2019-01-30T10:20:40.285Z,4.18
2019-01-30T10:21:40.298Z,4.19
2019-01-30T10:22:40.314Z,4.19
2019-01-30T10:23:40.404Z,4.19
2019-01-30T10:25:40.402Z,4.19
2019-01-30T10:26:40.273Z,4.19
2019-01-30T10:27:40.330Z,4.21
2019-01-30T10:28:40.290Z,4.22
2019-01-30T10:29:40.605Z,4.23
2019-01-30T10:30:40.435Z,4.23
2019-01-30T10:31:40.312Z,4.23
2019-01-30T10:32:40.390Z,4.22
2019-01-30T10:33:47.074Z,4.22
2019-01-30T10:34:40.381Z,4.24
2019-01-30T10:35:40.267Z,4.24
2019-01-30T10:36:40.932Z,4.25
2019-01-30T10:37:40.909Z,4.26
2019-01-30T10:38:40.252Z,4.25
2019-01-30T10:39:40.191Z,4.24
2019-01-30T10:40:41.189Z,4.26
2019-01-30T10:41:41.120Z,4.27
2019-01-30T10:42:40.555Z,4.26
2019-01-30T10:43:40.237Z,4.27
2019-01-30T10:44:40.257Z,4.27
2019-01-30T10:45:40.742Z,4.27
2019-01-30T10:46:40.521Z,4.27
2019-01-30T10:47:40.754Z,4.27
2019-01-30T10:48:40.258Z,4.27
2019-01-30T10:49:40.643Z,4.28
2019-01-30T10:50:40.295Z,4.29
2019-01-30T10:51:40.278Z,4.28
2019-01-30T10:52:40.450Z,4.29
2019-01-30T10:53:40.394Z,4.31
2019-01-30T10:54:40.162Z,4.3
2019-01-30T10:55:40.230Z,4.29
2019-01-30T10:56:40.243Z,4.29
2019-01-30T10:57:40.176Z,4.29
2019-01-30T10:58:40.223Z,4.29
2019-01-30T10:59:40.183Z,4.29
2019-01-30T11:00:40.201Z,4.31
2019-01-30T11:01:40.283Z,4.32
2019-01-30T11:02:40.281Z,4.33
2019-01-30T11:03:40.117Z,4.33
2019-01-30T11:04:40.235Z,4.34
2019-01-30T11:05:40.186Z,4.33
2019-01-30T11:06:40.219Z,4.33
2019-01-30T11:07:40.107Z,4.33
2019-01-30T11:08:40.432Z,4.34
2019-01-30T11:09:40.170Z,4.35
2019-01-30T11:10:40.188Z,4.38
2019-01-30T11:11:40.215Z,4.39
2019-01-30T11:12:40.192Z,4.4
2019-01-30T11:13:40.935Z,4.39
2019-01-30T11:14:41.343Z,4.4
2019-01-30T11:15:40.299Z,4.41
2019-01-30T11:16:40.520Z,4.42
2019-01-30T11:17:40.417Z,4.45
2019-01-30T11:18:40.560Z,4.46
2019-01-30T11:19:40.209Z,4.47
2019-01-30T11:20:40.159Z,4.47
2019-01-30T11:21:40.664Z,4.48
2019-01-30T11:22:40.306Z,4.47
2019-01-30T11:23:40.408Z,4.49
2019-01-30T11:24:40.271Z,4.49
2019-01-30T11:25:40.225Z,4.51
2019-01-30T11:26:40.572Z,4.5
2019-01-30T11:27:40.179Z,4.48
2019-01-30T11:28:40.282Z,4.48
2019-01-30T11:29:40.245Z,4.48
2019-01-30T11:30:41.042Z,4.48
2019-01-30T11:31:41.423Z,4.48
2019-01-30T11:32:40.165Z,4.49
2019-01-30T11:33:40.917Z,4.49
2019-01-30T11:34:40.186Z,4.49
2019-01-30T11:35:40.211Z,4.48
2019-01-30T11:36:40.878Z,4.48
2019-01-30T11:37:41.090Z,4.49
2019-01-30T11:38:40.370Z,4.5
2019-01-30T11:39:41.158Z,4.49
2019-01-30T11:40:40.607Z,4.51
2019-01-30T11:41:41.350Z,4.52
2019-01-30T11:42:40.153Z,4.51
2019-01-30T11:43:41.240Z,4.53
2019-01-30T11:44:40.244Z,4.53
2019-01-30T11:45:40.451Z,4.52
2019-01-30T11:46:40.418Z,4.52
2019-01-30T11:47:40.173Z,4.54
2019-01-30T11:48:40.434Z,4.55
2019-01-30T11:49:40.349Z,4.57
2019-01-30T11:50:40.365Z,4.58
2019-01-30T11:51:40.110Z,4.58
2019-01-30T11:52:40.983Z,4.6
2019-01-30T11:53:40.385Z,4.61
2019-01-30T11:54:40.889Z,4.63
2019-01-30T11:55:40.583Z,4.65
2019-01-30T11:56:41.331Z,4.67
2019-01-30T11:57:40.149Z,4.68
2019-01-30T11:58:40.197Z,4.69
2019-01-30T11:59:40.409Z,4.71
2019-01-30T12:00:40.359Z,4.72
2019-01-30T12:01:40.739Z,4.73
2019-01-30T12:02:48.744Z,4.73
2019-01-30T12:03:40.113Z,4.74
2019-01-30T12:04:40.431Z,4.75
2019-01-30T12:05:40.514Z,4.74
2019-01-30T12:06:40.266Z,4.75
2019-01-30T12:07:40.375Z,4.78
2019-01-30T12:08:40.258Z,4.78
2019-01-30T12:09:40.368Z,4.79
2019-01-30T12:10:40.123Z,4.79
2019-01-30T12:11:40.055Z,4.81
2019-01-30T12:12:40.397Z,4.81
2019-01-30T12:13:40.402Z,4.81
2019-01-30T12:14:40.101Z,4.81
2019-01-30T12:15:40.217Z,4.83
2019-01-30T12:16:40.440Z,4.85
2019-01-30T12:17:40.321Z,4.78
2019-01-30T12:18:40.461Z,4.79
2019-01-30T12:19:40.192Z,4.81
2019-01-30T12:20:40.219Z,4.79
2019-01-30T12:21:40.207Z,4.79
2019-01-30T12:22:40.159Z,4.8
2019-01-30T12:23:40.145Z,4.82
2019-01-30T12:24:40.303Z,4.84
2019-01-30T12:25:40.233Z,4.84
2019-01-30T12:26:40.284Z,4.83
2019-01-30T12:27:40.305Z,4.82
2019-01-30T12:28:40.117Z,4.78
2019-01-30T12:29:40.462Z,4.75
2019-01-30T12:30:40.074Z,4.77
2019-01-30T12:31:40.420Z,4.78
2019-01-30T12:32:40.072Z,4.75
2019-01-30T12:33:40.461Z,4.74
2019-01-30T12:34:40.131Z,4.71
2019-01-30T12:35:40.503Z,4.73
2019-01-30T12:36:40.064Z,4.74
2019-01-30T12:37:40.526Z,4.71
2019-01-30T12:38:40.055Z,4.69
2019-01-30T12:39:40.179Z,4.68
2019-01-30T12:40:40.081Z,4.7
2019-01-30T12:41:40.965Z,4.72
2019-01-30T12:42:40.122Z,4.69
2019-01-30T12:43:40.401Z,4.65
2019-01-30T12:44:40.025Z,4.62
2019-01-30T12:45:40.326Z,4.64
2019-01-30T12:46:40.053Z,4.66
2019-01-30T12:47:40.259Z,4.63
2019-01-30T12:48:40.367Z,4.65
2019-01-30T12:49:40.261Z,4.65
2019-01-30T12:50:40.240Z,4.64
2019-01-30T12:51:40.192Z,4.62
2019-01-30T12:52:40.558Z,4.63
2019-01-30T12:53:40.098Z,4.63
2019-01-30T12:54:40.268Z,4.61
2019-01-30T12:55:39.963Z,4.63
2019-01-30T12:56:40.121Z,4.65
2019-01-30T12:57:40.492Z,4.66
2019-01-30T12:58:40.041Z,4.67
2019-01-30T12:59:41.379Z,4.67
2019-01-30T13:00:40.529Z,4.66
2019-01-30T13:01:40.085Z,4.66
2019-01-30T13:02:40.070Z,4.62
2019-01-30T13:03:40.100Z,4.64
2019-01-30T13:04:40.251Z,4.65
2019-01-30T13:05:40.247Z,4.66
2019-01-30T13:06:40.250Z,4.68
2019-01-30T13:07:40.028Z,4.68
2019-01-30T13:08:40.011Z,4.65
2019-01-30T13:09:40.069Z,4.67
2019-01-30T13:10:40.405Z,4.68
2019-01-30T13:11:41.794Z,4.68
2019-01-30T13:12:40.041Z,4.7
2019-01-30T13:13:40.030Z,4.68
2019-01-30T13:14:40.326Z,4.71
2019-01-30T13:15:41.798Z,4.74
2019-01-30T13:16:39.949Z,4.71
2019-01-30T13:17:39.971Z,4.7
2019-01-30T13:18:40.130Z,4.71
2019-01-30T13:19:40.232Z,4.72
2019-01-30T13:20:40.204Z,4.71
2019-01-30T13:21:40.371Z,4.72
2019-01-30T13:22:40.159Z,4.7